sensor_id;sensor_type;location;lat;lon;timestamp;P1;durP1;ratioP1;P2;durP2;ratioP2
6205;SDS011;3136;48.788;9.772;2023-01-13T00:02:13;1.93;;;0.93;;
6205;SDS011;3136;48.788;9.772;2023-01-13T00:04:39;3.93;;;1.10;;
6205;SDS011;3136;48.788;9.772;2023-01-13T00:07:04;2.63;;;0.80;;
6205;SDS011;3136;48.788;9.772;2023-01-13T00:09:30;2.40;;;0.80;;
6205;SDS011;3136;48.788;9.772;2023-01-13T00:11:55;3.63;;;0.90;;
6205;SDS011;3136;48.788;9.772;2023-01-13T00:14:21;2.90;;;1.00;;
6205;SDS011;3136;48.788;9.772;2023-01-13T00:16:46;2.40;;;0.80;;
6205;SDS011;3136;48.788;9.772;2023-01-13T00:19:12;3.23;;;1.03;;
6205;SDS011;3136;48.788;9.772;2023-01-13T00:21:37;3.30;;;1.00;;
6205;SDS011;3136;48.788;9.772;2023-01-13T00:24:03;2.50;;;0.90;;
6205;SDS011;3136;48.788;9.772;2023-01-13T00:26:29;3.23;;;1.00;;
6205;SDS011;3136;48.788;9.772;2023-01-13T00:28:57;1.73;;;0.80;;
6205;SDS011;3136;48.788;9.772;2023-01-13T00:31:24;2.37;;;0.80;;
6205;SDS011;3136;48.788;9.772;2023-01-13T00:33:50;3.57;;;0.90;;
6205;SDS011;3136;48.788;9.772;2023-01-13T00:36:16;1.53;;;0.90;;
6205;SDS011;3136;48.788;9.772;2023-01-13T00:38:44;4.90;;;1.10;;
6205;SDS011;3136;48.788;9.772;2023-01-13T00:41:12;2.80;;;0.90;;
6205;SDS011;3136;48.788;9.772;2023-01-13T00:43:40;1.60;;;0.90;;
6205;SDS011;3136;48.788;9.772;2023-01-13T00:46:07;2.03;;;0.70;;
6205;SDS011;3136;48.788;9.772;2023-01-13T00:48:35;2.23;;;0.70;;
6205;SDS011;3136;48.788;9.772;2023-01-13T00:53:36;1.53;;;0.67;;
6205;SDS011;3136;48.788;9.772;2023-01-13T00:56:04;2.63;;;0.77;;
6205;SDS011;3136;48.788;9.772;2023-01-13T00:58:38;5.13;;;1.00;;
6205;SDS011;3136;48.788;9.772;2023-01-13T01:01:06;1.33;;;0.60;;
6205;SDS011;3136;48.788;9.772;2023-01-13T01:03:33;1.83;;;0.73;;
6205;SDS011;3136;48.788;9.772;2023-01-13T01:06:04;0.90;;;0.67;;
6205;SDS011;3136;48.788;9.772;2023-01-13T01:08:31;2.73;;;0.93;;
6205;SDS011;3136;48.788;9.772;2023-01-13T01:11:04;2.30;;;0.50;;
6205;SDS011;3136;48.788;9.772;2023-01-13T01:13:33;1.33;;;0.63;;
6205;SDS011;3136;48.788;9.772;2023-01-13T01:16:01;3.00;;;1.13;;
6205;SDS011;3136;48.788;9.772;2023-01-13T01:18:30;1.27;;;0.60;;
6205;SDS011;3136;48.788;9.772;2023-01-13T01:21:00;1.77;;;0.60;;
6205;SDS011;3136;48.788;9.772;2023-01-13T01:23:27;1.60;;;0.50;;
6205;SDS011;3136;48.788;9.772;2023-01-13T01:25:53;1.80;;;0.60;;
6205;SDS011;3136;48.788;9.772;2023-01-13T01:28:19;2.00;;;0.80;;
6205;SDS011;3136;48.788;9.772;2023-01-13T01:30:45;2.23;;;0.60;;
6205;SDS011;3136;48.788;9.772;2023-01-13T01:33:10;1.23;;;0.60;;
6205;SDS011;3136;48.788;9.772;2023-01-13T01:35:39;3.10;;;0.80;;
6205;SDS011;3136;48.788;9.772;2023-01-13T01:38:05;1.03;;;0.63;;
6205;SDS011;3136;48.788;9.772;2023-01-13T01:40:30;2.93;;;0.60;;
6205;SDS011;3136;48.788;9.772;2023-01-13T01:42:56;0.97;;;0.50;;
6205;SDS011;3136;48.788;9.772;2023-01-13T01:45:40;2.13;;;0.63;;
6205;SDS011;3136;48.788;9.772;2023-01-13T01:48:05;3.73;;;0.87;;
6205;SDS011;3136;48.788;9.772;2023-01-13T01:50:32;1.10;;;0.60;;
6205;SDS011;3136;48.788;9.772;2023-01-13T01:53:01;2.13;;;0.80;;
6205;SDS011;3136;48.788;9.772;2023-01-13T01:55:40;1.53;;;0.67;;
6205;SDS011;3136;48.788;9.772;2023-01-13T01:58:08;1.00;;;0.60;;
6205;SDS011;3136;48.788;9.772;2023-01-13T02:00:39;0.77;;;0.60;;
6205;SDS011;3136;48.788;9.772;2023-01-13T02:03:05;2.63;;;0.80;;
6205;SDS011;3136;48.788;9.772;2023-01-13T02:05:32;2.70;;;1.00;;
6205;SDS011;3136;48.788;9.772;2023-01-13T02:08:01;1.27;;;0.63;;
6205;SDS011;3136;48.788;9.772;2023-01-13T02:10:28;3.07;;;0.83;;
6205;SDS011;3136;48.788;9.772;2023-01-13T02:12:57;3.10;;;0.70;;
6205;SDS011;3136;48.788;9.772;2023-01-13T02:23:35;3.70;;;0.77;;
6205;SDS011;3136;48.788;9.772;2023-01-13T02:26:45;1.50;;;0.77;;
6205;SDS011;3136;48.788;9.772;2023-01-13T02:32:29;2.63;;;0.90;;
6205;SDS011;3136;48.788;9.772;2023-01-13T02:35:07;1.70;;;0.90;;
6205;SDS011;3136;48.788;9.772;2023-01-13T02:37:41;3.23;;;0.50;;
6205;SDS011;3136;48.788;9.772;2023-01-13T02:40:10;1.23;;;0.50;;
6205;SDS011;3136;48.788;9.772;2023-01-13T02:42:46;1.37;;;0.60;;
6205;SDS011;3136;48.788;9.772;2023-01-13T02:45:51;2.20;;;0.70;;
6205;SDS011;3136;48.788;9.772;2023-01-13T02:48:25;2.10;;;0.60;;
6205;SDS011;3136;48.788;9.772;2023-01-13T02:50:55;2.03;;;0.63;;
6205;SDS011;3136;48.788;9.772;2023-01-13T02:53:27;2.20;;;0.80;;
6205;SDS011;3136;48.788;9.772;2023-01-13T02:56:09;2.43;;;0.80;;
6205;SDS011;3136;48.788;9.772;2023-01-13T02:58:37;2.00;;;0.70;;
6205;SDS011;3136;48.788;9.772;2023-01-13T03:01:04;1.80;;;0.97;;
6205;SDS011;3136;48.788;9.772;2023-01-13T03:03:30;3.47;;;1.00;;
6205;SDS011;3136;48.788;9.772;2023-01-13T03:06:03;1.87;;;0.67;;
6205;SDS011;3136;48.788;9.772;2023-01-13T03:08:47;1.27;;;0.70;;
6205;SDS011;3136;48.788;9.772;2023-01-13T03:11:23;1.97;;;0.60;;
6205;SDS011;3136;48.788;9.772;2023-01-13T03:14:20;2.90;;;0.90;;
6205;SDS011;3136;48.788;9.772;2023-01-13T03:16:58;2.40;;;0.90;;
6205;SDS011;3136;48.788;9.772;2023-01-13T03:22:33;1.60;;;0.70;;
6205;SDS011;3136;48.788;9.772;2023-01-13T03:25:09;1.63;;;0.50;;
6205;SDS011;3136;48.788;9.772;2023-01-13T03:27:47;3.10;;;0.90;;
6205;SDS011;3136;48.788;9.772;2023-01-13T03:32:56;1.80;;;0.83;;
6205;SDS011;3136;48.788;9.772;2023-01-13T03:35:33;2.57;;;0.90;;
6205;SDS011;3136;48.788;9.772;2023-01-13T03:38:05;2.37;;;0.80;;
6205;SDS011;3136;48.788;9.772;2023-01-13T03:40:57;2.10;;;0.80;;
6205;SDS011;3136;48.788;9.772;2023-01-13T03:43:27;2.77;;;0.73;;
6205;SDS011;3136;48.788;9.772;2023-01-13T03:46:19;0.40;;;0.40;;
6205;SDS011;3136;48.788;9.772;2023-01-13T03:48:51;2.10;;;0.70;;
6205;SDS011;3136;48.788;9.772;2023-01-13T03:51:19;1.10;;;0.50;;
6205;SDS011;3136;48.788;9.772;2023-01-13T03:53:48;0.80;;;0.57;;
6205;SDS011;3136;48.788;9.772;2023-01-13T03:58:53;1.33;;;0.70;;
6205;SDS011;3136;48.788;9.772;2023-01-13T04:01:23;1.37;;;0.50;;
6205;SDS011;3136;48.788;9.772;2023-01-13T04:03:59;1.30;;;0.50;;
6205;SDS011;3136;48.788;9.772;2023-01-13T04:06:48;1.90;;;0.60;;
6205;SDS011;3136;48.788;9.772;2023-01-13T04:09:35;1.10;;;0.47;;
6205;SDS011;3136;48.788;9.772;2023-01-13T04:12:09;1.07;;;0.60;;
6205;SDS011;3136;48.788;9.772;2023-01-13T04:14:43;1.63;;;0.60;;
6205;SDS011;3136;48.788;9.772;2023-01-13T04:17:10;1.80;;;0.60;;
6205;SDS011;3136;48.788;9.772;2023-01-13T04:19:36;1.17;;;0.50;;
6205;SDS011;3136;48.788;9.772;2023-01-13T04:22:01;0.67;;;0.60;;
6205;SDS011;3136;48.788;9.772;2023-01-13T04:24:27;1.10;;;0.60;;
6205;SDS011;3136;48.788;9.772;2023-01-13T04:26:52;1.40;;;0.57;;
6205;SDS011;3136;48.788;9.772;2023-01-13T04:29:20;1.77;;;0.77;;
6205;SDS011;3136;48.788;9.772;2023-01-13T04:31:46;2.20;;;0.73;;
6205;SDS011;3136;48.788;9.772;2023-01-13T04:34:11;2.20;;;0.80;;
6205;SDS011;3136;48.788;9.772;2023-01-13T04:36:37;1.27;;;0.70;;
6205;SDS011;3136;48.788;9.772;2023-01-13T04:39:02;2.57;;;0.60;;
6205;SDS011;3136;48.788;9.772;2023-01-13T04:41:28;4.13;;;0.70;;
6205;SDS011;3136;48.788;9.772;2023-01-13T04:44:17;0.73;;;0.50;;
6205;SDS011;3136;48.788;9.772;2023-01-13T04:46:42;1.50;;;0.70;;
6205;SDS011;3136;48.788;9.772;2023-01-13T04:49:08;2.33;;;0.70;;
6205;SDS011;3136;48.788;9.772;2023-01-13T04:51:33;2.40;;;0.73;;
6205;SDS011;3136;48.788;9.772;2023-01-13T04:53:59;0.97;;;0.60;;
6205;SDS011;3136;48.788;9.772;2023-01-13T04:56:24;1.43;;;0.60;;
6205;SDS011;3136;48.788;9.772;2023-01-13T04:58:50;1.70;;;0.50;;
6205;SDS011;3136;48.788;9.772;2023-01-13T05:01:15;0.90;;;0.43;;
6205;SDS011;3136;48.788;9.772;2023-01-13T05:03:41;0.50;;;0.50;;
6205;SDS011;3136;48.788;9.772;2023-01-13T05:06:06;3.13;;;0.53;;
6205;SDS011;3136;48.788;9.772;2023-01-13T05:08:32;3.33;;;0.53;;
6205;SDS011;3136;48.788;9.772;2023-01-13T05:11:01;0.80;;;0.40;;
6205;SDS011;3136;48.788;9.772;2023-01-13T05:13:46;1.93;;;0.67;;
6205;SDS011;3136;48.788;9.772;2023-01-13T05:16:30;0.70;;;0.57;;
6205;SDS011;3136;48.788;9.772;2023-01-13T05:19:14;0.83;;;0.40;;
6205;SDS011;3136;48.788;9.772;2023-01-13T05:21:40;2.07;;;0.60;;
6205;SDS011;3136;48.788;9.772;2023-01-13T05:24:24;0.73;;;0.47;;
6205;SDS011;3136;48.788;9.772;2023-01-13T05:27:08;2.07;;;0.57;;
6205;SDS011;3136;48.788;9.772;2023-01-13T05:29:34;1.80;;;0.80;;
6205;SDS011;3136;48.788;9.772;2023-01-13T05:31:59;1.70;;;0.70;;
6205;SDS011;3136;48.788;9.772;2023-01-13T05:34:26;2.27;;;0.70;;
6205;SDS011;3136;48.788;9.772;2023-01-13T05:36:52;2.53;;;0.77;;
6205;SDS011;3136;48.788;9.772;2023-01-13T05:39:17;1.43;;;0.60;;
6205;SDS011;3136;48.788;9.772;2023-01-13T05:41:43;2.50;;;0.60;;
6205;SDS011;3136;48.788;9.772;2023-01-13T05:44:47;2.00;;;0.63;;
6205;SDS011;3136;48.788;9.772;2023-01-13T05:47:12;0.50;;;0.50;;
6205;SDS011;3136;48.788;9.772;2023-01-13T05:49:38;1.17;;;0.60;;
6205;SDS011;3136;48.788;9.772;2023-01-13T05:52:03;1.17;;;0.60;;
6205;SDS011;3136;48.788;9.772;2023-01-13T05:54:29;1.03;;;0.60;;
6205;SDS011;3136;48.788;9.772;2023-01-13T05:56:54;1.17;;;0.60;;
6205;SDS011;3136;48.788;9.772;2023-01-13T05:59:20;0.50;;;0.50;;
6205;SDS011;3136;48.788;9.772;2023-01-13T06:01:45;2.07;;;0.70;;
6205;SDS011;3136;48.788;9.772;2023-01-13T06:04:11;2.00;;;0.40;;
6205;SDS011;3136;48.788;9.772;2023-01-13T06:06:36;1.70;;;0.60;;
6205;SDS011;3136;48.788;9.772;2023-01-13T06:09:02;1.53;;;0.70;;
6205;SDS011;3136;48.788;9.772;2023-01-13T06:11:27;1.77;;;0.83;;
6205;SDS011;3136;48.788;9.772;2023-01-13T06:13:53;0.50;;;0.40;;
6205;SDS011;3136;48.788;9.772;2023-01-13T06:16:18;1.80;;;0.60;;
6205;SDS011;3136;48.788;9.772;2023-01-13T06:18:44;0.53;;;0.40;;
6205;SDS011;3136;48.788;9.772;2023-01-13T06:21:09;1.20;;;0.50;;
6205;SDS011;3136;48.788;9.772;2023-01-13T06:23:35;0.77;;;0.60;;
6205;SDS011;3136;48.788;9.772;2023-01-13T06:26:13;0.37;;;0.30;;
6205;SDS011;3136;48.788;9.772;2023-01-13T06:28:42;0.57;;;0.40;;
6205;SDS011;3136;48.788;9.772;2023-01-13T06:31:08;2.03;;;0.60;;
6205;SDS011;3136;48.788;9.772;2023-01-13T06:33:36;2.23;;;0.60;;
6205;SDS011;3136;48.788;9.772;2023-01-13T06:36:12;1.17;;;0.50;;
6205;SDS011;3136;48.788;9.772;2023-01-13T06:38:46;0.93;;;0.47;;
6205;SDS011;3136;48.788;9.772;2023-01-13T06:41:15;1.77;;;0.63;;
6205;SDS011;3136;48.788;9.772;2023-01-13T06:44:02;0.60;;;0.50;;
6205;SDS011;3136;48.788;9.772;2023-01-13T06:46:27;2.87;;;0.57;;
6205;SDS011;3136;48.788;9.772;2023-01-13T06:48:53;1.30;;;0.80;;
6205;SDS011;3136;48.788;9.772;2023-01-13T06:51:18;1.97;;;0.80;;
6205;SDS011;3136;48.788;9.772;2023-01-13T06:53:44;0.70;;;0.60;;
6205;SDS011;3136;48.788;9.772;2023-01-13T06:56:10;1.70;;;0.37;;
6205;SDS011;3136;48.788;9.772;2023-01-13T06:58:35;0.40;;;0.40;;
6205;SDS011;3136;48.788;9.772;2023-01-13T07:01:01;1.57;;;0.70;;
6205;SDS011;3136;48.788;9.772;2023-01-13T07:03:26;1.67;;;0.57;;
6205;SDS011;3136;48.788;9.772;2023-01-13T07:05:52;2.13;;;0.80;;
6205;SDS011;3136;48.788;9.772;2023-01-13T07:08:19;2.83;;;0.80;;
6205;SDS011;3136;48.788;9.772;2023-01-13T07:10:45;0.73;;;0.50;;
6205;SDS011;3136;48.788;9.772;2023-01-13T07:13:11;2.20;;;0.67;;
6205;SDS011;3136;48.788;9.772;2023-01-13T07:15:59;2.53;;;0.60;;
6205;SDS011;3136;48.788;9.772;2023-01-13T07:18:27;0.57;;;0.53;;
6205;SDS011;3136;48.788;9.772;2023-01-13T07:20:56;1.53;;;0.80;;
6205;SDS011;3136;48.788;9.772;2023-01-13T07:23:23;1.53;;;0.50;;
6205;SDS011;3136;48.788;9.772;2023-01-13T07:25:49;1.33;;;0.70;;
6205;SDS011;3136;48.788;9.772;2023-01-13T07:28:15;1.43;;;0.80;;
6205;SDS011;3136;48.788;9.772;2023-01-13T07:30:41;0.83;;;0.40;;
6205;SDS011;3136;48.788;9.772;2023-01-13T07:33:06;1.27;;;0.50;;
6205;SDS011;3136;48.788;9.772;2023-01-13T07:35:32;0.93;;;0.50;;
6205;SDS011;3136;48.788;9.772;2023-01-13T07:37:57;0.97;;;0.60;;
6205;SDS011;3136;48.788;9.772;2023-01-13T07:40:23;0.50;;;0.50;;
6205;SDS011;3136;48.788;9.772;2023-01-13T07:42:48;0.67;;;0.67;;
6205;SDS011;3136;48.788;9.772;2023-01-13T07:45:32;1.27;;;0.50;;
6205;SDS011;3136;48.788;9.772;2023-01-13T07:47:58;2.47;;;0.60;;
6205;SDS011;3136;48.788;9.772;2023-01-13T07:50:23;1.07;;;0.37;;
6205;SDS011;3136;48.788;9.772;2023-01-13T07:52:49;0.73;;;0.40;;
6205;SDS011;3136;48.788;9.772;2023-01-13T07:55:15;0.83;;;0.50;;
6205;SDS011;3136;48.788;9.772;2023-01-13T07:57:41;0.73;;;0.20;;
6205;SDS011;3136;48.788;9.772;2023-01-13T08:00:06;0.30;;;0.30;;
6205;SDS011;3136;48.788;9.772;2023-01-13T08:02:33;0.23;;;0.20;;
6205;SDS011;3136;48.788;9.772;2023-01-13T08:04:58;0.87;;;0.30;;
6205;SDS011;3136;48.788;9.772;2023-01-13T08:07:24;0.73;;;0.50;;
6205;SDS011;3136;48.788;9.772;2023-01-13T08:09:49;0.50;;;0.30;;
6205;SDS011;3136;48.788;9.772;2023-01-13T08:12:15;1.40;;;0.40;;
6205;SDS011;3136;48.788;9.772;2023-01-13T08:14:59;0.57;;;0.23;;
6205;SDS011;3136;48.788;9.772;2023-01-13T08:17:24;0.30;;;0.27;;
6205;SDS011;3136;48.788;9.772;2023-01-13T08:19:50;0.20;;;0.20;;
6205;SDS011;3136;48.788;9.772;2023-01-13T08:22:16;0.93;;;0.60;;
6205;SDS011;3136;48.788;9.772;2023-01-13T08:24:41;0.13;;;0.13;;
6205;SDS011;3136;48.788;9.772;2023-01-13T08:27:07;0.20;;;0.20;;
6205;SDS011;3136;48.788;9.772;2023-01-13T08:29:32;0.27;;;0.20;;
6205;SDS011;3136;48.788;9.772;2023-01-13T08:31:58;0.37;;;0.30;;
6205;SDS011;3136;48.788;9.772;2023-01-13T08:34:23;1.00;;;0.57;;
6205;SDS011;3136;48.788;9.772;2023-01-13T08:36:49;0.30;;;0.30;;
6205;SDS011;3136;48.788;9.772;2023-01-13T08:39:15;0.27;;;0.23;;
6205;SDS011;3136;48.788;9.772;2023-01-13T08:41:41;0.50;;;0.30;;
6205;SDS011;3136;48.788;9.772;2023-01-13T08:44:19;0.63;;;0.40;;
6205;SDS011;3136;48.788;9.772;2023-01-13T08:46:46;0.20;;;0.20;;
6205;SDS011;3136;48.788;9.772;2023-01-13T08:49:11;0.20;;;0.20;;
6205;SDS011;3136;48.788;9.772;2023-01-13T08:51:37;0.70;;;0.30;;
6205;SDS011;3136;48.788;9.772;2023-01-13T08:54:02;0.53;;;0.30;;
6205;SDS011;3136;48.788;9.772;2023-01-13T08:56:28;0.20;;;0.20;;
6205;SDS011;3136;48.788;9.772;2023-01-13T08:58:57;0.20;;;0.17;;
6205;SDS011;3136;48.788;9.772;2023-01-13T09:01:23;0.77;;;0.30;;
6205;SDS011;3136;48.788;9.772;2023-01-13T09:03:50;0.30;;;0.30;;
6205;SDS011;3136;48.788;9.772;2023-01-13T09:06:15;0.40;;;0.33;;
6205;SDS011;3136;48.788;9.772;2023-01-13T09:08:41;2.13;;;0.30;;
6205;SDS011;3136;48.788;9.772;2023-01-13T09:11:09;0.60;;;0.53;;
6205;SDS011;3136;48.788;9.772;2023-01-13T09:14:11;1.73;;;0.30;;
6205;SDS011;3136;48.788;9.772;2023-01-13T09:16:36;0.40;;;0.40;;
6205;SDS011;3136;48.788;9.772;2023-01-13T09:19:02;2.03;;;0.43;;
6205;SDS011;3136;48.788;9.772;2023-01-13T09:21:27;2.10;;;0.50;;
6205;SDS011;3136;48.788;9.772;2023-01-13T09:23:53;0.57;;;0.47;;
6205;SDS011;3136;48.788;9.772;2023-01-13T09:26:19;2.67;;;0.50;;
6205;SDS011;3136;48.788;9.772;2023-01-13T09:28:45;0.20;;;0.20;;
6205;SDS011;3136;48.788;9.772;2023-01-13T09:31:12;0.70;;;0.40;;
6205;SDS011;3136;48.788;9.772;2023-01-13T09:33:38;3.30;;;0.47;;
6205;SDS011;3136;48.788;9.772;2023-01-13T09:36:22;0.50;;;0.50;;
6205;SDS011;3136;48.788;9.772;2023-01-13T09:38:48;1.80;;;0.60;;
6205;SDS011;3136;48.788;9.772;2023-01-13T09:41:24;0.60;;;0.37;;
6205;SDS011;3136;48.788;9.772;2023-01-13T09:44:12;0.40;;;0.40;;
6205;SDS011;3136;48.788;9.772;2023-01-13T09:46:52;0.73;;;0.40;;
6205;SDS011;3136;48.788;9.772;2023-01-13T09:51:54;0.50;;;0.40;;
6205;SDS011;3136;48.788;9.772;2023-01-13T09:56:52;0.57;;;0.47;;
6205;SDS011;3136;48.788;9.772;2023-01-13T09:59:18;0.80;;;0.30;;
6205;SDS011;3136;48.788;9.772;2023-01-13T10:01:55;1.27;;;0.40;;
6205;SDS011;3136;48.788;9.772;2023-01-13T10:04:51;0.77;;;0.50;;
6205;SDS011;3136;48.788;9.772;2023-01-13T10:07:48;0.83;;;0.40;;
6205;SDS011;3136;48.788;9.772;2023-01-13T10:10:21;2.23;;;0.40;;
6205;SDS011;3136;48.788;9.772;2023-01-13T10:13:15;2.67;;;0.67;;
6205;SDS011;3136;48.788;9.772;2023-01-13T10:18:40;2.10;;;0.30;;
6205;SDS011;3136;48.788;9.772;2023-01-13T10:24:27;1.33;;;0.60;;
6205;SDS011;3136;48.788;9.772;2023-01-13T10:32:53;0.70;;;0.50;;
6205;SDS011;3136;48.788;9.772;2023-01-13T10:38:26;1.37;;;0.80;;
6205;SDS011;3136;48.788;9.772;2023-01-13T10:40:53;1.40;;;0.40;;
6205;SDS011;3136;48.788;9.772;2023-01-13T10:43:19;1.23;;;0.70;;
6205;SDS011;3136;48.788;9.772;2023-01-13T10:45:50;2.63;;;0.70;;
6205;SDS011;3136;48.788;9.772;2023-01-13T10:48:20;1.47;;;0.57;;
6205;SDS011;3136;48.788;9.772;2023-01-13T10:50:46;3.07;;;0.80;;
6205;SDS011;3136;48.788;9.772;2023-01-13T10:53:17;1.73;;;0.63;;
6205;SDS011;3136;48.788;9.772;2023-01-13T10:56:03;1.33;;;0.70;;
6205;SDS011;3136;48.788;9.772;2023-01-13T10:58:29;0.67;;;0.50;;
6205;SDS011;3136;48.788;9.772;2023-01-13T11:01:02;1.80;;;0.60;;
6205;SDS011;3136;48.788;9.772;2023-01-13T11:03:39;2.00;;;0.60;;
6205;SDS011;3136;48.788;9.772;2023-01-13T11:06:07;7.40;;;0.80;;
6205;SDS011;3136;48.788;9.772;2023-01-13T11:08:41;2.20;;;0.67;;
6205;SDS011;3136;48.788;9.772;2023-01-13T11:14:14;3.27;;;0.90;;
6205;SDS011;3136;48.788;9.772;2023-01-13T11:22:42;4.47;;;0.97;;
6205;SDS011;3136;48.788;9.772;2023-01-13T11:25:20;2.90;;;0.90;;
6205;SDS011;3136;48.788;9.772;2023-01-13T11:27:56;1.70;;;0.77;;
6205;SDS011;3136;48.788;9.772;2023-01-13T11:30:34;2.83;;;0.70;;
6205;SDS011;3136;48.788;9.772;2023-01-13T11:35:47;3.40;;;0.90;;
6205;SDS011;3136;48.788;9.772;2023-01-13T11:38:19;5.10;;;1.10;;
6205;SDS011;3136;48.788;9.772;2023-01-13T11:40:48;4.07;;;1.00;;
6205;SDS011;3136;48.788;9.772;2023-01-13T11:43:20;2.40;;;0.90;;
6205;SDS011;3136;48.788;9.772;2023-01-13T11:46:00;1.07;;;0.63;;
6205;SDS011;3136;48.788;9.772;2023-01-13T11:48:27;2.60;;;0.70;;
6205;SDS011;3136;48.788;9.772;2023-01-13T11:59:21;1.57;;;0.50;;
6205;SDS011;3136;48.788;9.772;2023-01-13T12:01:59;2.30;;;0.60;;
6205;SDS011;3136;48.788;9.772;2023-01-13T12:07:39;0.90;;;0.50;;
6205;SDS011;3136;48.788;9.772;2023-01-13T12:10:16;1.40;;;0.50;;
6205;SDS011;3136;48.788;9.772;2023-01-13T12:18:30;5.03;;;0.80;;
6205;SDS011;3136;48.788;9.772;2023-01-13T12:23:50;3.70;;;1.00;;
6205;SDS011;3136;48.788;9.772;2023-01-13T12:26:23;4.43;;;0.70;;
6205;SDS011;3136;48.788;9.772;2023-01-13T12:31:29;2.53;;;0.60;;
6205;SDS011;3136;48.788;9.772;2023-01-13T12:37:10;1.10;;;0.47;;
6205;SDS011;3136;48.788;9.772;2023-01-13T12:39:56;2.83;;;0.83;;
6205;SDS011;3136;48.788;9.772;2023-01-13T12:42:45;2.53;;;0.83;;
6205;SDS011;3136;48.788;9.772;2023-01-13T12:45:37;2.17;;;0.97;;
6205;SDS011;3136;48.788;9.772;2023-01-13T12:48:02;1.67;;;0.83;;
6205;SDS011;3136;48.788;9.772;2023-01-13T12:55:43;1.30;;;0.70;;
6205;SDS011;3136;48.788;9.772;2023-01-13T13:06:13;1.47;;;0.50;;
6205;SDS011;3136;48.788;9.772;2023-01-13T13:11:19;0.63;;;0.60;;
6205;SDS011;3136;48.788;9.772;2023-01-13T13:14:08;1.20;;;0.77;;
6205;SDS011;3136;48.788;9.772;2023-01-13T13:16:44;1.97;;;0.73;;
6205;SDS011;3136;48.788;9.772;2023-01-13T13:24:34;2.47;;;0.53;;
6205;SDS011;3136;48.788;9.772;2023-01-13T13:27:16;3.17;;;0.80;;
6205;SDS011;3136;48.788;9.772;2023-01-13T13:40:55;2.40;;;0.60;;
6205;SDS011;3136;48.788;9.772;2023-01-13T13:43:40;3.17;;;1.20;;
6205;SDS011;3136;48.788;9.772;2023-01-13T13:46:27;1.50;;;1.00;;
6205;SDS011;3136;48.788;9.772;2023-01-13T13:49:32;3.47;;;2.03;;
6205;SDS011;3136;48.788;9.772;2023-01-13T13:52:17;2.77;;;1.17;;
6205;SDS011;3136;48.788;9.772;2023-01-13T13:54:54;3.77;;;1.40;;
6205;SDS011;3136;48.788;9.772;2023-01-13T13:59:56;1.87;;;1.03;;
6205;SDS011;3136;48.788;9.772;2023-01-13T14:02:26;1.60;;;1.00;;
6205;SDS011;3136;48.788;9.772;2023-01-13T14:10:29;4.63;;;1.20;;
6205;SDS011;3136;48.788;9.772;2023-01-13T14:12:58;2.27;;;0.90;;
6205;SDS011;3136;48.788;9.772;2023-01-13T14:15:25;5.70;;;1.10;;
6205;SDS011;3136;48.788;9.772;2023-01-13T14:18:02;3.97;;;1.10;;
6205;SDS011;3136;48.788;9.772;2023-01-13T14:20:30;2.43;;;1.27;;
6205;SDS011;3136;48.788;9.772;2023-01-13T14:22:58;2.17;;;0.97;;
6205;SDS011;3136;48.788;9.772;2023-01-13T14:27:54;3.57;;;1.13;;
6205;SDS011;3136;48.788;9.772;2023-01-13T14:30:25;5.40;;;1.17;;
6205;SDS011;3136;48.788;9.772;2023-01-13T14:32:52;3.53;;;1.27;;
6205;SDS011;3136;48.788;9.772;2023-01-13T14:35:18;4.70;;;1.30;;
6205;SDS011;3136;48.788;9.772;2023-01-13T14:37:43;2.67;;;1.00;;
6205;SDS011;3136;48.788;9.772;2023-01-13T14:43:00;2.27;;;0.90;;
6205;SDS011;3136;48.788;9.772;2023-01-13T14:45:28;4.60;;;1.23;;
6205;SDS011;3136;48.788;9.772;2023-01-13T14:47:57;3.00;;;1.20;;
6205;SDS011;3136;48.788;9.772;2023-01-13T14:50:24;6.67;;;2.20;;
6205;SDS011;3136;48.788;9.772;2023-01-13T14:52:55;3.33;;;1.10;;
6205;SDS011;3136;48.788;9.772;2023-01-13T15:00:45;3.63;;;0.80;;
6205;SDS011;3136;48.788;9.772;2023-01-13T15:03:15;2.73;;;0.77;;
6205;SDS011;3136;48.788;9.772;2023-01-13T15:05:43;4.50;;;0.80;;
6205;SDS011;3136;48.788;9.772;2023-01-13T15:10:46;2.70;;;0.77;;
6205;SDS011;3136;48.788;9.772;2023-01-13T15:15:51;2.23;;;1.37;;
6205;SDS011;3136;48.788;9.772;2023-01-13T15:18:18;6.17;;;1.00;;
6205;SDS011;3136;48.788;9.772;2023-01-13T15:20:44;3.07;;;0.87;;
6205;SDS011;3136;48.788;9.772;2023-01-13T15:23:10;1.87;;;1.07;;
6205;SDS011;3136;48.788;9.772;2023-01-13T15:25:37;2.87;;;0.77;;
6205;SDS011;3136;48.788;9.772;2023-01-13T15:28:05;3.90;;;1.13;;
6205;SDS011;3136;48.788;9.772;2023-01-13T15:30:32;2.73;;;1.27;;
6205;SDS011;3136;48.788;9.772;2023-01-13T15:32:58;4.67;;;1.13;;
6205;SDS011;3136;48.788;9.772;2023-01-13T15:35:25;3.57;;;1.20;;
6205;SDS011;3136;48.788;9.772;2023-01-13T15:37:54;1.83;;;1.00;;
6205;SDS011;3136;48.788;9.772;2023-01-13T15:40:22;5.00;;;1.40;;
6205;SDS011;3136;48.788;9.772;2023-01-13T15:42:57;4.10;;;2.30;;
6205;SDS011;3136;48.788;9.772;2023-01-13T15:45:41;19.27;;;7.07;;
6205;SDS011;3136;48.788;9.772;2023-01-13T15:48:26;13.23;;;5.40;;
6205;SDS011;3136;48.788;9.772;2023-01-13T15:50:54;6.50;;;1.67;;
6205;SDS011;3136;48.788;9.772;2023-01-13T15:53:20;4.80;;;1.50;;
6205;SDS011;3136;48.788;9.772;2023-01-13T15:55:47;6.67;;;2.00;;
6205;SDS011;3136;48.788;9.772;2023-01-13T15:58:15;5.13;;;2.37;;
6205;SDS011;3136;48.788;9.772;2023-01-13T16:00:44;3.73;;;1.27;;
6205;SDS011;3136;48.788;9.772;2023-01-13T16:03:12;4.47;;;1.40;;
6205;SDS011;3136;48.788;9.772;2023-01-13T16:05:38;5.07;;;1.60;;
6205;SDS011;3136;48.788;9.772;2023-01-13T16:08:04;4.03;;;1.20;;
6205;SDS011;3136;48.788;9.772;2023-01-13T16:10:41;5.47;;;1.30;;
6205;SDS011;3136;48.788;9.772;2023-01-13T16:13:07;3.63;;;1.10;;
6205;SDS011;3136;48.788;9.772;2023-01-13T16:15:32;4.30;;;1.40;;
6205;SDS011;3136;48.788;9.772;2023-01-13T16:17:59;3.10;;;1.10;;
6205;SDS011;3136;48.788;9.772;2023-01-13T16:20:27;5.73;;;1.60;;
6205;SDS011;3136;48.788;9.772;2023-01-13T16:22:53;4.43;;;1.87;;
6205;SDS011;3136;48.788;9.772;2023-01-13T16:25:21;5.17;;;1.20;;
6205;SDS011;3136;48.788;9.772;2023-01-13T16:27:49;3.70;;;1.30;;
6205;SDS011;3136;48.788;9.772;2023-01-13T16:30:20;5.57;;;1.37;;
6205;SDS011;3136;48.788;9.772;2023-01-13T16:32:52;3.00;;;0.90;;
6205;SDS011;3136;48.788;9.772;2023-01-13T16:35:19;5.63;;;1.50;;
6205;SDS011;3136;48.788;9.772;2023-01-13T16:37:46;2.60;;;1.00;;
6205;SDS011;3136;48.788;9.772;2023-01-13T16:40:23;3.73;;;1.27;;
6205;SDS011;3136;48.788;9.772;2023-01-13T16:42:51;5.67;;;1.43;;
6205;SDS011;3136;48.788;9.772;2023-01-13T16:45:17;5.40;;;1.30;;
6205;SDS011;3136;48.788;9.772;2023-01-13T16:47:43;4.73;;;1.57;;
6205;SDS011;3136;48.788;9.772;2023-01-13T16:53:07;5.80;;;2.20;;
6205;SDS011;3136;48.788;9.772;2023-01-13T16:55:34;5.60;;;1.50;;
6205;SDS011;3136;48.788;9.772;2023-01-13T16:58:00;4.53;;;1.50;;
6205;SDS011;3136;48.788;9.772;2023-01-13T17:00:26;6.47;;;1.57;;
6205;SDS011;3136;48.788;9.772;2023-01-13T17:02:52;3.97;;;1.40;;
6205;SDS011;3136;48.788;9.772;2023-01-13T17:05:18;4.87;;;1.43;;
6205;SDS011;3136;48.788;9.772;2023-01-13T17:07:44;5.43;;;1.30;;
6205;SDS011;3136;48.788;9.772;2023-01-13T17:10:14;4.47;;;1.67;;
6205;SDS011;3136;48.788;9.772;2023-01-13T17:12:42;5.13;;;2.30;;
6205;SDS011;3136;48.788;9.772;2023-01-13T17:15:09;5.47;;;1.67;;
6205;SDS011;3136;48.788;9.772;2023-01-13T17:17:39;3.17;;;1.43;;
6205;SDS011;3136;48.788;9.772;2023-01-13T17:20:09;3.97;;;2.00;;
6205;SDS011;3136;48.788;9.772;2023-01-13T17:22:35;7.53;;;2.57;;
6205;SDS011;3136;48.788;9.772;2023-01-13T17:25:01;5.67;;;1.57;;
6205;SDS011;3136;48.788;9.772;2023-01-13T17:27:27;8.93;;;1.70;;
6205;SDS011;3136;48.788;9.772;2023-01-13T17:29:54;6.13;;;1.90;;
6205;SDS011;3136;48.788;9.772;2023-01-13T17:32:20;5.93;;;2.20;;
6205;SDS011;3136;48.788;9.772;2023-01-13T17:34:47;7.10;;;2.00;;
6205;SDS011;3136;48.788;9.772;2023-01-13T17:37:13;6.17;;;1.57;;
6205;SDS011;3136;48.788;9.772;2023-01-13T17:39:40;6.97;;;1.80;;
6205;SDS011;3136;48.788;9.772;2023-01-13T17:42:08;9.27;;;1.83;;
6205;SDS011;3136;48.788;9.772;2023-01-13T17:44:34;6.03;;;2.57;;
6205;SDS011;3136;48.788;9.772;2023-01-13T17:46:59;7.43;;;1.97;;
6205;SDS011;3136;48.788;9.772;2023-01-13T17:49:25;5.80;;;1.80;;
6205;SDS011;3136;48.788;9.772;2023-01-13T17:51:51;6.13;;;3.03;;
6205;SDS011;3136;48.788;9.772;2023-01-13T17:54:17;8.13;;;1.73;;